ドーハ の空港の天気 - METARとTAF

ドーハ国際空港 ( OTBD / DOH ) - カタール ドーハ
飛行場実況気象(Metar)
観測時間08/25 22:00 AST (08/25 19:00 UTC)
風向・風速東北東 2m/s
視程10km以上
天気現象
なし
気温35℃
湿度60%
気圧1002hPa
METAROTBD 251900Z 06003KT CAVOK 35/26 Q1002 NOSIG
過去の天気等 Google飛行場航空写真 Wunderground天気予報

過去48時間のMETAR

飛行場予報(TAF)
発表時間: 8/25 20:04 AST (8/25 17:04 UTC)
予報対象時間: 25日21時 AST ~ 27日3時 AST
風向・風速東 2m/s
視程8000m
なし
26日3時 AST ~ 26日7時 AST に 確率 30% で一時的に
視程5000m
天気現象煙霧
26日4時 AST ~ 26日6時 AST に徐々に
風向・風速不定 1m/s
26日10時 AST ~ 26日12時 AST に徐々に
風向・風速東北東 5m/s
26日20時 AST ~ 26日22時 AST に徐々に
風向・風速南東 3m/s
TAF OTBD 251704Z 2518/2624 09004KT 8000 NSC
PROB30 TEMPO 2600/2604 5000 HZ
BECMG 2601/2603 VRB02KT
BECMG 2607/2609 07010KT
BECMG 2617/2619 14005KT